• Join FlightAware (Why Join?)
  • Login
  • US Flag 
11:17PM EDT


 

Airport Tracker/Info


-or-


 

Live Flight TrackerFlight Track Log ✈ SWA718 ✈ 23-Apr-2013 ✈ KHOU - KMCO

Flight Track Log - Related Links

Times and Time Zones

All times are in EDT time to prevent confusion due to time zone crossing. See the SWA718 flight status page for this flight to view local times or setup timezone preferences in your user account.

Time Position Orientation Groundspeed Altitude Reporting Facility
EDT Latitude Longitude Course Direction KTS MPH feet Rate Location/Type
04:55PM 29.5822 -95.2350 152° Southeast 183 211 3,900  Level Houston Center
04:56PM 29.5589 -95.1672 112° Southeast 253 291 7,300 3,240 Climbing Houston Center
04:57PM 29.5775 -95.0761 77° East 296 341 10,700 3,960 Climbing Houston Center
04:58PM 29.5981 -94.9744 77° East 331 381 15,500 3,300 Climbing Houston Center
04:59PM 29.6197 -94.8636 77° East 354 407 17,600 2,700 Climbing Houston Center
05:00PM 29.6478 -94.7192 77° East 385 443 21,100 2,640 Climbing Houston Center
05:02PM 29.6728 -94.5894 77° East 412 474 23,100 2,160 Climbing Houston Center
05:03PM 29.6989 -94.4533 78° East 433 498 25,700 2,460 Climbing Houston Center
05:04PM 29.7192 -94.3142 80° East 442 509 28,200 1,920 Climbing Houston Center
05:05PM 29.7011 -94.1633 98° East 466 536 29,700 1,500 Climbing Houston Center
05:06PM 29.6858 -94.0064 96° East 496 571 31,300 1,740 Climbing Houston Center
05:07PM 29.6850 -93.8117 90° East 510 587 33,400 1,920 Climbing Houston Center
05:08PM 29.6833 -93.6472 91° East 515 593 35,300 1,440 Climbing Houston Center
05:09PM 29.6803 -93.4786 91° East 526 605 36,400 1,140 Climbing Houston Center
05:10PM 29.6706 -93.3069 94° East 542 624 37,700 1,200 Climbing Houston Center
05:11PM 29.6386 -93.1031 100° East 543 625 39,000 600 Climbing Houston Center
05:12PM 29.6122 -92.9339 100° East 542 624 39,000  Level Houston Center
05:13PM 29.5836 -92.7653 101° East 541 623 39,000  Level Houston Center
05:14PM 29.5581 -92.5975 100° East 538 619 39,000  Level Houston Center
05:15PM 29.5322 -92.4281 100° East 540 621 39,000  Level Houston Center
05:16PM 29.5050 -92.2594 100° East 539 620 39,000  Level Houston Center
05:17PM 29.4736 -92.0564 100° East 540 621 39,000  Level Houston Center
05:18PM 29.4456 -91.8881 101° East 540 621 39,000  Level Houston Center
05:19PM 29.4178 -91.7189 101° East 541 623 39,000  Level Houston Center
05:20PM 29.3911 -91.5586 101° East 536 617 39,000  Level Houston Center
05:21PM 29.3572 -91.3575 101° East 537 618 39,000  Level Houston Center
05:22PM 29.3300 -91.1906 101° East 536 617 39,000  Level Houston Center
05:23PM 29.3006 -91.0247 101° East 534 615 39,000  Level Houston Center
05:24PM 29.2725 -90.8569 101° East 536 617 39,000  Level Houston Center
05:25PM 29.2436 -90.6900 101° East 536 617 39,000  Level Houston Center
05:26PM 29.2081 -90.4894 101° East 538 619 39,000  Level Houston Center
05:27PM 29.1789 -90.3228 101° East 538 619 39,000  Level Houston Center
05:28PM 29.1497 -90.1558 101° East 537 618 39,000  Level Houston Center
05:29PM 29.1200 -89.9883 101° East 541 623 39,000  Level Houston Center
05:30PM 29.0900 -89.8222 102° East 538 619 39,000  Level Houston Center
05:32PM 29.0592 -89.6567 102° East 535 616 39,000  Level Houston Center
05:33PM 29.0231 -89.4564 102° East 539 620 39,000  Level Houston Center
05:34PM 28.9933 -89.2931 102° East 532 612 39,000  Level Houston Center
05:35PM 28.9633 -89.1286 102° East 531 611 39,000  Level Houston Center
05:36PM 28.9328 -88.9647 102° East 527 606 39,000  Level Houston Center
05:37PM 28.9019 -88.8011 102° East 529 609 39,000  Level Houston Center
05:38PM 28.8572 -88.6072 105° East 525 604 39,000  Level Houston Center
05:39PM 28.8131 -88.4458 107° East 533 613 39,000  Level Houston Center
05:40PM 28.7683 -88.2869 108° East 527 606 39,000  Level Houston Center
05:41PM 28.7242 -88.1286 108° East 527 606 39,000  Level Houston Center
05:42PM 28.6781 -87.9633 108° East 530 610 39,000  Level Houston Center
05:43PM 28.6325 -87.8053 108° East 528 608 39,000  Level Houston Center
05:44PM 28.5789 -87.6133 108° East 532 612 39,000  Level Houston Center
05:44PM 28.5661 -87.5556 104° East 510 587 39,000  Level Jacksonville Center
05:45PM 28.5197 -87.3953 108° East 524 603 39,000  Level Jacksonville Center
05:46PM 28.4731 -87.2350 108° East 526 605 39,000  Level Jacksonville Center
05:47PM 28.4219 -87.0747 110° East 533 613 39,000  Level Jacksonville Center
05:48PM 28.3769 -86.9172 108° East 527 606 39,000  Level Jacksonville Center
05:49PM 28.3278 -86.7500 108° East 532 612 39,000  Level Jacksonville Center
05:50PM 28.2883 -86.6072 107° East 522 601 39,000  Level Jacksonville Center
05:51PM 28.2408 -86.4431 108° East 532 612 39,000  Level Jacksonville Center
05:52PM 28.1908 -86.2833 110° East 532 612 39,000  Level Jacksonville Center
05:53PM 28.1447 -86.1242 108° East 532 612 39,000  Level Jacksonville Center
05:54PM 28.0967 -85.9628 109° East 532 612 39,000  Level Jacksonville Center
05:55PM 28.0481 -85.8061 109° East 532 612 39,000  Level Jacksonville Center
05:56PM 28.0017 -85.6450 108° East 527 606 39,000  Level Jacksonville Center
05:59PM 27.8992 -85.2475 106° East 536 617 39,000  Level Miami Center
06:00PM 27.9000 -85.0903 90° East 510 587 39,000  Level Miami Center
06:01PM 27.8842 -84.9250 96° East 510 587 39,000  Level Miami Center
06:02PM 27.8869 -84.7658 89° East 510 587 39,000  Level Miami Center
06:03PM 27.8811 -84.6036 92° East 510 587 39,000  Level Miami Center
06:04PM 27.8794 -84.4392 91° East 516 594 39,000 -480 Level Miami Center
06:05PM 27.8814 -84.2797 89° East 516 594 38,100 -1,680 Descending Miami Center
06:06PM 27.8689 -84.1194 95° East 516 594 35,700 -2,580 Descending Miami Center
06:07PM 27.8686 -83.9600 90° East 516 594 33,000 -2,520 Descending Miami Center
06:08PM 27.8633 -83.8072 92° East 510 587 30,700 -2,340 Descending Miami Center
06:09PM 27.8600 -83.6592 91° East 487 560 28,400 -2,220 Descending Miami Center
06:10PM 27.8544 -83.5156 92° East 471 542 26,300 -2,100 Descending Miami Center
06:11PM 27.8522 -83.3819 91° East 447 514 24,300 -1,680 Descending Miami Center
06:12PM 27.8475 -83.2550 92° East 422 486 23,000 -660 Descending Miami Center
06:13PM 27.8444 -83.1328 92° East 401 461 23,000  Level Miami Center
06:14PM 27.8417 -83.0058 91° East 401 461 23,000  Level Miami Center
06:15PM 27.8369 -82.8672 92° East 401 461 23,000  Level Miami Center
06:16PM 27.8297 -82.7425 94° East 401 461 23,000 -300 Level Miami Center
06:17PM 27.8325 -82.6206 88° East 406 467 22,400 -840 Descending Miami Center
06:18PM 27.8414 -82.5014 85° East 396 456 21,400 -1,020 Descending Miami Center
06:19PM 27.8708 -82.3900 73° East 372 428 20,400 -1,020 Descending Miami Center
06:20PM 27.9019 -82.2814 72° East 366 421 19,400 -1,380 Descending Miami Center
06:22PM 27.9667 -82.0667 71° East 351 404 16,400 -1,680 Descending Orlando TRACON
06:23PM 28.0000 -81.9833 66° East 340 391 14,600 -1,740 Descending Orlando TRACON
06:24PM 28.0500 -81.8833 60° Northeast 324 373 13,100 -1,320 Descending Orlando TRACON
06:25PM 28.0833 -81.8000 66° East 314 361 11,900 -1,440 Descending Orlando TRACON
06:26PM 28.1333 -81.6833 64° Northeast 301 346 9,900 -1,560 Descending Orlando TRACON
06:27PM 28.1500 -81.6167 74° East 283 326 8,800 -1,260 Descending Orlando TRACON
06:28PM 28.1667 -81.5500 74° East 241 277 7,700 -1,620 Descending Orlando TRACON
06:29PM 28.1833 -81.4667 77° East 244 281 5,700 -1,800 Descending Orlando TRACON
06:30PM 28.2167 -81.4000 60° Northeast 245 282 4,100 -1,440 Descending Orlando TRACON
06:31PM 28.2667 -81.3667 30° Northeast 227 261 2,800 -900 Descending Orlando TRACON
06:32PM 28.3167 -81.3333 30° Northeast 155 178 2,300 -780 Descending Orlando TRACON
06:33PM 28.3667 -81.3167 16° North 138 159 1,200 -840 Descending Orlando TRACON
06:34PM 28.3833 -81.3167 360° North 129 148 700 -600 Descending Orlando TRACON
06:36PM 28.4294 -81.3090 North  Level Estimated